createdAt,value
2023-05-13T00:00:45.126Z,14.24
2023-05-13T00:03:12.786Z,14.21
2023-05-13T00:05:41.383Z,14.18
2023-05-13T00:08:08.411Z,14.17
2023-05-13T00:10:35.767Z,14.17
2023-05-13T00:13:03.017Z,14.18
2023-05-13T00:15:30.211Z,14.16
2023-05-13T00:17:57.862Z,14.14
2023-05-13T00:20:25.391Z,14.09
2023-05-13T00:22:52.671Z,14.08
2023-05-13T00:25:20.112Z,14.07
2023-05-13T00:27:47.244Z,14.07
2023-05-13T00:30:14.688Z,14.04
2023-05-13T00:32:42.030Z,14.00
2023-05-13T00:35:10.330Z,13.93
2023-05-13T00:37:37.582Z,13.87
2023-05-13T00:40:05.559Z,13.85
2023-05-13T00:42:32.777Z,13.83
2023-05-13T00:45:00.161Z,13.79
2023-05-13T00:47:27.684Z,13.76
2023-05-13T00:49:55.174Z,13.71
2023-05-13T00:52:22.415Z,13.68
2023-05-13T00:54:49.679Z,13.68
2023-05-13T00:57:17.287Z,13.70
2023-05-13T00:59:44.597Z,13.72
2023-05-13T01:02:21.360Z,13.72
2023-05-13T01:05:05.313Z,13.73
2023-05-13T01:07:32.783Z,13.74
2023-05-13T01:10:08.928Z,13.74
2023-05-13T01:12:44.774Z,13.74
2023-05-13T01:15:19.557Z,13.73
2023-05-13T01:18:11.869Z,13.72
2023-05-13T01:20:41.513Z,13.70
2023-05-13T01:23:12.317Z,13.69
2023-05-13T01:25:40.559Z,13.68
2023-05-13T01:28:08.429Z,13.67
2023-05-13T01:30:36.398Z,13.67
2023-05-13T01:33:05.298Z,13.67
2023-05-13T01:35:32.550Z,13.66
2023-05-13T01:38:00.202Z,13.65
2023-05-13T01:40:32.650Z,13.64
2023-05-13T01:43:05.510Z,13.62
2023-05-13T01:45:33.587Z,13.60
2023-05-13T01:48:01.314Z,13.58
2023-05-13T01:50:37.144Z,13.56
2023-05-13T01:53:05.520Z,13.55
2023-05-13T01:55:32.579Z,13.54
2023-05-13T01:57:59.922Z,13.51
2023-05-13T02:00:26.966Z,13.50
2023-05-13T02:02:54.276Z,13.49
2023-05-13T02:05:21.674Z,13.48
2023-05-13T02:07:48.784Z,13.47
2023-05-13T02:10:15.974Z,13.46
2023-05-13T02:12:42.904Z,13.47
2023-05-13T02:15:11.020Z,13.48
2023-05-13T02:17:37.931Z,13.48
2023-05-13T02:20:05.904Z,13.47
2023-05-13T02:22:32.831Z,13.45
2023-05-13T02:24:59.695Z,13.44
2023-05-13T02:27:27.255Z,13.43
2023-05-13T02:29:54.815Z,13.44
2023-05-13T02:32:22.594Z,13.45
2023-05-13T02:34:50.271Z,13.47
2023-05-13T02:37:17.550Z,13.50
2023-05-13T02:39:49.636Z,13.53
2023-05-13T02:42:18.245Z,13.55
2023-05-13T02:44:46.206Z,13.58
2023-05-13T02:47:13.978Z,13.63
2023-05-13T02:49:41.136Z,13.67
2023-05-13T02:52:08.781Z,13.72
2023-05-13T02:54:36.753Z,13.76
2023-05-13T02:57:04.769Z,13.81
2023-05-13T02:59:32.071Z,13.83
2023-05-13T03:01:59.644Z,13.86
2023-05-13T03:04:27.305Z,13.88
2023-05-13T03:06:54.740Z,13.89
2023-05-13T03:09:22.313Z,13.90
2023-05-13T03:11:49.461Z,13.91
2023-05-13T03:14:17.022Z,13.92
2023-05-13T03:16:45.292Z,13.93
2023-05-13T03:19:14.461Z,13.92
2023-05-13T03:21:42.047Z,13.89
2023-05-13T03:24:11.456Z,13.87
2023-05-13T03:26:38.820Z,13.85
2023-05-13T03:29:06.466Z,13.84
2023-05-13T03:31:35.105Z,13.86
2023-05-13T03:34:03.731Z,13.89
2023-05-13T03:36:32.736Z,13.92
2023-05-13T03:39:00.592Z,13.96
2023-05-13T03:41:28.663Z,13.98
2023-05-13T03:43:57.764Z,14.03
2023-05-13T03:46:27.615Z,14.06
2023-05-13T03:48:56.162Z,14.12
2023-05-13T03:51:23.710Z,14.19
2023-05-13T03:53:51.372Z,14.25
2023-05-13T03:56:18.934Z,14.31
2023-05-13T03:58:46.104Z,14.38
2023-05-13T04:01:13.438Z,14.44
2023-05-13T04:03:43.149Z,14.49
2023-05-13T04:06:10.534Z,14.54
2023-05-13T04:08:37.761Z,14.61
2023-05-13T04:11:05.354Z,14.66
2023-05-13T04:13:36.270Z,14.71
2023-05-13T04:16:04.129Z,14.78
2023-05-13T04:18:31.722Z,14.85
2023-05-13T04:20:59.345Z,14.93
2023-05-13T04:23:26.692Z,15.00
2023-05-13T04:25:54.253Z,15.08
2023-05-13T04:28:21.824Z,15.17
2023-05-13T04:30:50.615Z,15.26
2023-05-13T04:33:18.474Z,15.33
2023-05-13T04:35:48.388Z,15.43
2023-05-13T04:38:15.940Z,15.49
2023-05-13T04:40:45.338Z,15.56
2023-05-13T04:43:14.742Z,15.64
2023-05-13T04:45:57.491Z,15.73
2023-05-13T04:48:28.760Z,15.85
2023-05-13T04:50:58.821Z,15.97
2023-05-13T04:53:27.272Z,16.07
2023-05-13T04:56:01.262Z,16.14
2023-05-13T04:58:30.714Z,16.20
2023-05-13T05:00:58.479Z,16.27
2023-05-13T05:03:26.389Z,16.34
2023-05-13T05:05:55.082Z,16.43
2023-05-13T05:08:24.432Z,16.50
2023-05-13T05:10:52.295Z,16.58
2023-05-13T05:13:20.063Z,16.65
2023-05-13T05:15:47.315Z,16.73
2023-05-13T05:18:15.279Z,16.82
2023-05-13T05:20:45.299Z,16.87
2023-05-13T05:23:43.584Z,16.93
2023-05-13T05:26:12.561Z,16.99
2023-05-13T05:28:47.123Z,17.07
2023-05-13T05:31:17.647Z,17.14
2023-05-13T05:33:45.025Z,17.20
2023-05-13T05:36:12.665Z,17.25
2023-05-13T05:38:40.301Z,17.29
2023-05-13T05:41:08.607Z,17.31
2023-05-13T05:43:36.135Z,17.34
2023-05-13T05:46:03.614Z,17.36
2023-05-13T05:48:33.154Z,17.42
2023-05-13T05:51:02.434Z,17.51
2023-05-13T05:53:32.616Z,17.58
2023-05-13T05:56:01.002Z,17.62
2023-05-13T05:58:29.083Z,17.67
2023-05-13T06:00:58.571Z,17.75
2023-05-13T06:03:26.518Z,17.82
2023-05-13T06:05:54.508Z,17.89
2023-05-13T06:08:22.900Z,17.95
2023-05-13T06:10:51.988Z,18.02
2023-05-13T06:13:19.541Z,18.11
2023-05-13T06:15:47.090Z,18.19
2023-05-13T06:18:15.272Z,18.24
2023-05-13T06:20:42.850Z,18.27
2023-05-13T06:23:10.698Z,18.30
2023-05-13T06:25:38.164Z,18.40
2023-05-13T06:28:08.999Z,18.49
2023-05-13T06:30:37.371Z,18.57
2023-05-13T06:33:05.614Z,18.65
2023-05-13T06:35:33.010Z,18.72
2023-05-13T06:38:03.589Z,18.79
2023-05-13T06:40:31.586Z,18.87
2023-05-13T06:42:58.998Z,18.94
2023-05-13T06:45:31.228Z,19.01
2023-05-13T06:47:59.205Z,19.08
2023-05-13T06:50:27.776Z,19.16
2023-05-13T06:52:55.441Z,19.25
2023-05-13T06:55:24.030Z,19.34
2023-05-13T06:57:51.992Z,19.41
2023-05-13T07:00:20.884Z,19.49
2023-05-13T07:02:48.855Z,19.56
2023-05-13T07:05:16.323Z,19.67
2023-05-13T07:07:43.962Z,19.78
2023-05-13T07:10:11.638Z,19.87
2023-05-13T07:12:39.289Z,19.96
2023-05-13T07:15:07.672Z,20.05
2023-05-13T07:17:35.221Z,20.12
2023-05-13T07:20:02.827Z,20.20
2023-05-13T07:22:30.335Z,20.29
2023-05-13T07:24:58.417Z,20.42
2023-05-13T07:27:25.976Z,20.54
2023-05-13T07:29:53.731Z,20.66
2023-05-13T07:32:21.431Z,20.75
2023-05-13T07:34:49.156Z,20.82
2023-05-13T07:37:17.590Z,20.92
2023-05-13T07:39:44.980Z,21.01
2023-05-13T07:42:13.155Z,21.15
2023-05-13T07:44:41.214Z,21.29
2023-05-13T07:47:08.568Z,21.42
2023-05-13T07:49:37.809Z,21.53
2023-05-13T07:52:06.339Z,21.63
2023-05-13T07:54:33.842Z,21.71
2023-05-13T07:57:01.692Z,21.76
2023-05-13T07:59:29.592Z,21.85
2023-05-13T08:01:57.127Z,21.91
2023-05-13T08:04:25.104Z,21.97
2023-05-13T08:06:53.263Z,22.08
2023-05-13T08:09:20.963Z,22.17
2023-05-13T08:11:48.585Z,22.27
2023-05-13T08:14:15.951Z,22.39
2023-05-13T08:16:43.313Z,22.50
2023-05-13T08:19:11.128Z,22.55
2023-05-13T08:21:39.273Z,22.61
2023-05-13T08:24:07.208Z,22.73
2023-05-13T08:26:34.808Z,22.79
2023-05-13T08:29:02.422Z,22.85
2023-05-13T08:31:32.327Z,22.83
2023-05-13T08:34:00.008Z,22.84
2023-05-13T08:36:27.573Z,22.86
2023-05-13T08:38:55.336Z,22.85
2023-05-13T08:41:23.288Z,22.86
2023-05-13T08:43:50.562Z,22.90
2023-05-13T08:46:18.216Z,22.94
2023-05-13T08:48:45.870Z,22.98
2023-05-13T08:51:13.421Z,23.03
2023-05-13T08:53:41.502Z,23.05
2023-05-13T08:56:10.195Z,23.06
2023-05-13T08:58:37.744Z,23.15
2023-05-13T09:01:06.043Z,23.26
2023-05-13T09:03:34.095Z,23.41
2023-05-13T09:06:02.273Z,23.56
2023-05-13T09:08:29.821Z,23.66
2023-05-13T09:10:57.306Z,23.71
2023-05-13T09:13:24.838Z,23.69
2023-05-13T09:15:52.444Z,23.58
2023-05-13T09:18:20.108Z,23.50
2023-05-13T09:20:48.455Z,23.46
2023-05-13T09:23:16.297Z,23.48
2023-05-13T09:25:43.749Z,23.56
2023-05-13T09:28:11.521Z,23.62
2023-05-13T09:30:46.466Z,23.70
2023-05-13T09:33:20.257Z,23.84
2023-05-13T09:35:54.472Z,23.96
2023-05-13T09:38:37.494Z,24.13
2023-05-13T09:41:06.752Z,24.34
2023-05-13T09:43:35.150Z,24.47
2023-05-13T09:46:03.619Z,24.55
2023-05-13T09:48:32.504Z,24.65
2023-05-13T09:51:00.401Z,24.86
2023-05-13T09:53:28.068Z,25.06
2023-05-13T09:55:56.683Z,25.23
2023-05-13T09:58:31.128Z,25.34
2023-05-13T10:00:58.793Z,25.42
2023-05-13T10:03:26.014Z,25.49
2023-05-13T10:05:53.936Z,25.45
2023-05-13T10:08:20.999Z,25.29
2023-05-13T10:10:47.877Z,25.06
2023-05-13T10:13:16.565Z,24.85
2023-05-13T10:15:51.514Z,24.75
2023-05-13T10:18:19.838Z,24.76
2023-05-13T10:20:47.507Z,24.79
2023-05-13T10:23:15.146Z,24.78
2023-05-13T10:25:43.033Z,24.78
2023-05-13T10:28:10.072Z,24.86
2023-05-13T10:30:38.246Z,24.97
2023-05-13T10:33:05.421Z,25.09
2023-05-13T10:35:37.130Z,25.21
2023-05-13T10:38:20.172Z,25.37
2023-05-13T10:41:30.736Z,25.53
2023-05-13T10:43:58.807Z,25.67
2023-05-13T10:46:26.435Z,25.79
2023-05-13T10:49:00.142Z,25.92
2023-05-13T10:51:27.850Z,26.14
2023-05-13T10:53:56.958Z,26.43
2023-05-13T10:56:28.038Z,26.58
2023-05-13T10:59:03.233Z,26.78
2023-05-13T11:01:47.579Z,27.01
2023-05-13T11:04:17.681Z,27.32
2023-05-13T11:06:50.937Z,27.66
2023-05-13T11:09:23.045Z,27.84
2023-05-13T11:11:55.664Z,28.00
2023-05-13T11:14:27.086Z,28.14
2023-05-13T11:17:02.104Z,28.27
2023-05-13T11:19:39.695Z,28.49
2023-05-13T11:22:11.356Z,28.71
2023-05-13T11:24:48.130Z,29.02
2023-05-13T11:27:21.456Z,29.46
2023-05-13T11:29:53.587Z,29.81
2023-05-13T11:33:03.108Z,30.09
2023-05-13T11:35:32.124Z,30.30
2023-05-13T11:38:01.433Z,30.09
2023-05-13T11:40:30.436Z,29.56
2023-05-13T11:42:58.407Z,29.04
2023-05-13T11:45:29.281Z,28.55
2023-05-13T11:47:57.989Z,28.10
2023-05-13T11:50:30.810Z,27.66
2023-05-13T11:52:59.684Z,27.25
2023-05-13T11:55:35.893Z,27.23
2023-05-13T11:58:03.611Z,27.67
2023-05-13T12:00:35.851Z,28.28
2023-05-13T12:03:09.612Z,28.90
2023-05-13T12:05:37.547Z,29.31
2023-05-13T12:08:07.709Z,29.41
2023-05-13T12:10:35.538Z,29.42
2023-05-13T12:13:03.198Z,29.51
2023-05-13T12:15:31.068Z,29.77
2023-05-13T12:17:58.637Z,29.99
2023-05-13T12:20:26.597Z,29.96
2023-05-13T12:22:57.081Z,29.67
2023-05-13T12:25:38.421Z,29.26
2023-05-13T12:28:22.760Z,28.81
2023-05-13T12:30:57.095Z,28.34
2023-05-13T12:33:28.622Z,28.02
2023-05-13T12:36:21.969Z,27.98
2023-05-13T12:39:11.564Z,28.15
2023-05-13T12:41:42.635Z,28.24
2023-05-13T12:44:16.819Z,28.23
2023-05-13T12:46:55.636Z,28.07
2023-05-13T12:49:24.119Z,27.98
2023-05-13T12:51:52.896Z,27.98
2023-05-13T12:54:20.705Z,28.05
2023-05-13T12:56:48.841Z,28.15
2023-05-13T12:59:17.019Z,28.15
2023-05-13T13:01:44.507Z,28.04
2023-05-13T13:04:13.415Z,28.07
2023-05-13T13:06:41.053Z,28.12
2023-05-13T13:09:09.304Z,28.13
2023-05-13T13:11:36.641Z,28.04
2023-05-13T13:14:04.316Z,27.95
2023-05-13T13:16:32.273Z,27.93
2023-05-13T13:19:02.268Z,27.94
2023-05-13T13:21:29.654Z,27.92
2023-05-13T13:23:57.418Z,27.93
2023-05-13T13:26:25.059Z,28.03
2023-05-13T13:28:52.661Z,28.15
2023-05-13T13:31:20.328Z,28.16
2023-05-13T13:33:48.063Z,28.11
2023-05-13T13:36:17.162Z,28.17
2023-05-13T13:38:46.397Z,28.34
2023-05-13T13:41:13.810Z,28.35
2023-05-13T13:43:41.381Z,28.28
2023-05-13T13:46:09.179Z,28.20
2023-05-13T13:48:36.914Z,28.19
2023-05-13T13:51:07.539Z,28.33
2023-05-13T13:53:35.318Z,28.51
2023-05-13T13:56:03.162Z,28.64
2023-05-13T13:58:30.622Z,28.79
2023-05-13T14:00:59.571Z,28.95
2023-05-13T14:03:28.719Z,29.19
2023-05-13T14:05:56.484Z,29.44
2023-05-13T14:08:24.186Z,29.56
2023-05-13T14:10:52.812Z,29.57
2023-05-13T14:13:21.299Z,29.44
2023-05-13T14:15:48.882Z,29.16
2023-05-13T14:18:17.233Z,28.84
2023-05-13T14:20:45.048Z,28.59
2023-05-13T14:23:12.556Z,28.28
2023-05-13T14:25:39.916Z,27.85
2023-05-13T14:28:08.857Z,27.40
2023-05-13T14:30:36.565Z,26.98
2023-05-13T14:33:07.197Z,26.63
2023-05-13T14:35:34.963Z,26.44
2023-05-13T14:38:02.727Z,26.37
2023-05-13T14:40:31.925Z,26.32
2023-05-13T14:42:59.613Z,26.30
2023-05-13T14:45:30.020Z,26.21
2023-05-13T14:47:57.827Z,26.13
2023-05-13T14:50:25.286Z,26.14
2023-05-13T14:52:52.990Z,26.09
2023-05-13T14:55:20.925Z,25.99
2023-05-13T14:57:48.661Z,25.89
2023-05-13T15:00:16.977Z,25.73
2023-05-13T15:02:44.576Z,25.55
2023-05-13T15:05:13.350Z,25.40
2023-05-13T15:07:42.037Z,25.30
2023-05-13T15:10:10.555Z,25.24
2023-05-13T15:12:39.434Z,25.21
2023-05-13T15:15:08.918Z,25.19
2023-05-13T15:17:36.500Z,25.14
2023-05-13T15:20:04.910Z,25.09
2023-05-13T15:22:34.003Z,25.05
2023-05-13T15:25:02.939Z,25.02
2023-05-13T15:27:30.645Z,24.95
2023-05-13T15:29:58.318Z,24.81
2023-05-13T15:32:26.052Z,24.68
2023-05-13T15:34:53.784Z,24.57
2023-05-13T15:37:21.980Z,24.47
2023-05-13T15:39:49.863Z,24.36
2023-05-13T15:42:19.029Z,24.29
2023-05-13T15:44:46.519Z,24.25
2023-05-13T15:47:14.461Z,24.19
2023-05-13T15:49:42.522Z,24.11
2023-05-13T15:52:09.899Z,24.03
2023-05-13T15:54:37.743Z,23.93
2023-05-13T15:57:05.417Z,23.83
2023-05-13T15:59:32.772Z,23.74
2023-05-13T16:02:00.266Z,23.66
2023-05-13T16:04:27.917Z,23.61
2023-05-13T16:06:55.534Z,23.55
2023-05-13T16:09:23.916Z,23.48
2023-05-13T16:11:54.464Z,23.40
2023-05-13T16:14:21.997Z,23.31
2023-05-13T16:16:49.424Z,23.23
2023-05-13T16:19:17.117Z,23.13
2023-05-13T16:21:44.878Z,23.00
2023-05-13T16:24:12.345Z,22.89
2023-05-13T16:26:39.616Z,22.76
2023-05-13T16:29:07.454Z,22.65
2023-05-13T16:31:35.243Z,22.56
2023-05-13T16:34:03.007Z,22.49
2023-05-13T16:36:32.103Z,22.38
2023-05-13T16:39:00.247Z,22.26
2023-05-13T16:41:27.915Z,22.15
2023-05-13T16:43:55.471Z,22.05
2023-05-13T16:46:23.048Z,21.97
2023-05-13T16:48:51.036Z,21.87
2023-05-13T16:51:18.532Z,21.76
2023-05-13T16:53:46.229Z,21.65
2023-05-13T16:56:13.604Z,21.53
2023-05-13T16:58:41.452Z,21.42
2023-05-13T17:01:09.324Z,21.33
2023-05-13T17:03:37.172Z,21.22
2023-05-13T17:06:07.838Z,21.10
2023-05-13T17:08:35.576Z,20.97
2023-05-13T17:11:03.208Z,20.83
2023-05-13T17:13:31.096Z,20.71
2023-05-13T17:15:58.553Z,20.61
2023-05-13T17:18:27.145Z,20.54
2023-05-13T17:20:55.174Z,20.44
2023-05-13T17:23:22.830Z,20.35
2023-05-13T17:25:51.243Z,20.28
2023-05-13T17:28:18.845Z,20.20
2023-05-13T17:30:47.620Z,20.13
2023-05-13T17:33:16.215Z,20.02
2023-05-13T17:35:43.936Z,19.90
2023-05-13T17:38:11.571Z,19.80
2023-05-13T17:40:38.957Z,19.70
2023-05-13T17:43:06.719Z,19.61
2023-05-13T17:45:35.877Z,19.51
2023-05-13T17:48:03.800Z,19.45
2023-05-13T17:50:32.298Z,19.41
2023-05-13T17:53:00.753Z,19.35
2023-05-13T17:55:28.204Z,19.30
2023-05-13T17:57:55.963Z,19.24
2023-05-13T18:00:24.167Z,19.19
2023-05-13T18:02:52.441Z,19.12
2023-05-13T18:05:21.845Z,19.10
2023-05-13T18:07:49.458Z,19.12
2023-05-13T18:10:17.034Z,19.13
2023-05-13T18:12:44.797Z,19.13
2023-05-13T18:15:12.359Z,19.12
2023-05-13T18:17:40.068Z,19.11
2023-05-13T18:20:08.813Z,19.13
2023-05-13T18:22:36.521Z,19.10
2023-05-13T18:25:07.414Z,19.07
2023-05-13T18:27:35.248Z,19.03
2023-05-13T18:30:23.268Z,19.02
2023-05-13T18:32:51.434Z,19.02
2023-05-13T18:35:21.711Z,19.00
2023-05-13T18:37:49.373Z,18.96
2023-05-13T18:40:17.233Z,18.92
2023-05-13T18:42:44.609Z,18.85
2023-05-13T18:45:12.358Z,18.78
2023-05-13T18:47:40.367Z,18.74
2023-05-13T18:50:08.710Z,18.70
2023-05-13T18:52:36.466Z,18.68
2023-05-13T18:55:05.378Z,18.66
2023-05-13T18:57:32.869Z,18.67
2023-05-13T19:00:00.593Z,18.69
2023-05-13T19:02:29.110Z,18.70
2023-05-13T19:04:56.671Z,18.71
2023-05-13T19:07:24.123Z,18.72
2023-05-13T19:09:51.527Z,18.71
2023-05-13T19:12:18.878Z,18.66
2023-05-13T19:14:46.853Z,18.63
2023-05-13T19:17:14.678Z,18.60
2023-05-13T19:19:43.505Z,18.57
2023-05-13T19:22:11.367Z,18.55
2023-05-13T19:24:38.666Z,18.52
2023-05-13T19:27:07.318Z,18.50
2023-05-13T19:29:35.834Z,18.48
2023-05-13T19:32:03.218Z,18.47
2023-05-13T19:34:30.612Z,18.48
2023-05-13T19:36:58.269Z,18.49
2023-05-13T19:39:26.022Z,18.49
2023-05-13T19:41:53.404Z,18.50
2023-05-13T19:44:21.168Z,18.48
2023-05-13T19:46:48.582Z,18.46
2023-05-13T19:49:16.058Z,18.44
2023-05-13T19:51:43.635Z,18.45
2023-05-13T19:54:12.125Z,18.47
2023-05-13T19:56:39.756Z,18.49
2023-05-13T19:59:08.034Z,18.47
2023-05-13T20:01:35.604Z,18.44
2023-05-13T20:04:04.215Z,18.41
2023-05-13T20:06:32.980Z,18.38
2023-05-13T20:09:02.369Z,18.36
2023-05-13T20:11:29.823Z,18.32
2023-05-13T20:13:59.435Z,18.27
2023-05-13T20:16:27.396Z,18.23
2023-05-13T20:18:54.927Z,18.20
2023-05-13T20:21:22.312Z,18.18
2023-05-13T20:23:50.097Z,18.16
2023-05-13T20:26:17.428Z,18.15
2023-05-13T20:28:46.009Z,18.14
2023-05-13T20:31:13.499Z,18.12
2023-05-13T20:33:41.167Z,18.10
2023-05-13T20:36:08.728Z,18.08
2023-05-13T20:38:36.662Z,18.08
2023-05-13T20:41:04.117Z,18.05
2023-05-13T20:43:34.335Z,18.02
2023-05-13T20:46:03.498Z,17.99
2023-05-13T20:48:35.401Z,17.95
2023-05-13T20:51:03.995Z,17.92
2023-05-13T20:53:37.925Z,17.89
2023-05-13T20:56:05.676Z,17.86
2023-05-13T20:58:33.106Z,17.85
2023-05-13T21:01:00.940Z,17.83
2023-05-13T21:03:28.496Z,17.80
2023-05-13T21:05:55.993Z,17.79
2023-05-13T21:08:24.052Z,17.76
2023-05-13T21:10:51.722Z,17.75
2023-05-13T21:13:19.337Z,17.72
2023-05-13T21:15:47.064Z,17.70
2023-05-13T21:18:14.503Z,17.67
2023-05-13T21:20:44.833Z,17.63
2023-05-13T21:23:12.282Z,17.60
2023-05-13T21:25:39.643Z,17.59
2023-05-13T21:28:07.501Z,17.57
2023-05-13T21:30:34.936Z,17.54
2023-05-13T21:33:02.572Z,17.50
2023-05-13T21:35:30.389Z,17.46
2023-05-13T21:38:11.000Z,17.42
2023-05-13T21:40:39.744Z,17.38
2023-05-13T21:43:07.003Z,17.35
2023-05-13T21:45:34.642Z,17.33
2023-05-13T21:48:02.295Z,17.32
2023-05-13T21:50:30.178Z,17.30
2023-05-13T21:52:58.035Z,17.28
2023-05-13T21:55:25.804Z,17.26
2023-05-13T21:57:53.566Z,17.24
2023-05-13T22:00:21.988Z,17.21
2023-05-13T22:02:50.914Z,17.19
2023-05-13T22:05:18.699Z,17.17
2023-05-13T22:07:46.567Z,17.16
2023-05-13T22:10:14.125Z,17.16
2023-05-13T22:12:41.681Z,17.14
2023-05-13T22:15:10.060Z,17.13
2023-05-13T22:17:37.587Z,17.13
2023-05-13T22:20:06.784Z,17.13
2023-05-13T22:22:34.287Z,17.14
2023-05-13T22:25:01.729Z,17.14
2023-05-13T22:27:29.195Z,17.14
2023-05-13T22:29:57.259Z,17.12
2023-05-13T22:32:25.320Z,17.09
2023-05-13T22:34:53.023Z,17.08
2023-05-13T22:37:20.995Z,17.06
2023-05-13T22:39:48.735Z,17.07
2023-05-13T22:42:16.193Z,17.06
2023-05-13T22:44:43.951Z,17.06
2023-05-13T22:47:11.175Z,17.05
2023-05-13T22:49:38.594Z,17.05
2023-05-13T22:52:06.526Z,17.02
2023-05-13T22:54:34.048Z,17.00
2023-05-13T22:57:01.659Z,16.97
2023-05-13T22:59:29.208Z,16.94
2023-05-13T23:01:56.923Z,16.93
2023-05-13T23:04:24.678Z,16.91
2023-05-13T23:06:52.699Z,16.89
2023-05-13T23:09:20.460Z,16.88
2023-05-13T23:11:47.913Z,16.87
2023-05-13T23:14:15.782Z,16.85
2023-05-13T23:16:43.370Z,16.84
2023-05-13T23:19:11.351Z,16.82
2023-05-13T23:21:39.076Z,16.80
2023-05-13T23:24:06.754Z,16.79
2023-05-13T23:26:34.395Z,16.78
2023-05-13T23:29:01.970Z,16.77
2023-05-13T23:31:29.693Z,16.76
2023-05-13T23:33:57.190Z,16.76
2023-05-13T23:36:24.728Z,16.74
2023-05-13T23:38:52.307Z,16.71
2023-05-13T23:41:19.746Z,16.68
2023-05-13T23:43:47.514Z,16.65
2023-05-13T23:46:15.026Z,16.63
2023-05-13T23:48:42.733Z,16.60
2023-05-13T23:51:10.030Z,16.58
2023-05-13T23:53:37.646Z,16.57
2023-05-13T23:56:05.820Z,16.53
2023-05-13T23:58:33.486Z,16.51
